createdAt,value
2023-05-05T00:00:16.156Z,9.26
2023-05-05T00:03:20.835Z,9.20
2023-05-05T00:06:23.073Z,9.21
2023-05-05T00:09:25.183Z,9.22
2023-05-05T00:12:27.742Z,9.22
2023-05-05T00:15:29.792Z,9.22
2023-05-05T00:18:33.894Z,9.28
2023-05-05T00:21:36.026Z,9.31
2023-05-05T00:24:37.972Z,9.32
2023-05-05T00:27:41.042Z,9.29
2023-05-05T00:30:43.155Z,9.32
2023-05-05T00:33:45.445Z,9.28
2023-05-05T00:36:47.791Z,9.29
2023-05-05T00:39:49.861Z,9.25
2023-05-05T00:42:52.514Z,9.23
2023-05-05T00:46:06.534Z,9.19
2023-05-05T00:49:08.869Z,9.14
2023-05-05T00:52:11.600Z,9.16
2023-05-05T00:55:13.760Z,9.13
2023-05-05T00:58:15.848Z,9.16
2023-05-05T01:01:18.047Z,9.11
2023-05-05T01:04:19.981Z,9.07
2023-05-05T01:07:41.315Z,9.08
2023-05-05T01:10:55.250Z,9.00
2023-05-05T01:14:40.377Z,8.93
2023-05-05T01:17:47.950Z,8.76
2023-05-05T01:21:02.065Z,8.73
2023-05-05T01:24:39.100Z,8.63
2023-05-05T01:27:55.795Z,8.55
2023-05-05T01:31:18.031Z,8.58
2023-05-05T01:34:25.529Z,8.58
2023-05-05T01:37:49.411Z,8.43
2023-05-05T01:41:03.854Z,8.38
2023-05-05T01:44:08.368Z,8.43
2023-05-05T01:47:15.952Z,8.29
2023-05-05T01:50:18.834Z,8.26
2023-05-05T01:53:24.177Z,8.27
2023-05-05T01:56:27.556Z,8.28
2023-05-05T01:59:30.345Z,8.25
2023-05-05T02:02:35.232Z,8.26
2023-05-05T02:05:39.814Z,8.26
2023-05-05T02:08:43.798Z,8.22
2023-05-05T02:11:46.205Z,8.16
2023-05-05T02:14:49.370Z,8.15
2023-05-05T02:17:53.070Z,8.11
2023-05-05T02:20:56.102Z,8.09
2023-05-05T02:23:58.685Z,8.12
2023-05-05T02:27:04.046Z,8.15
2023-05-05T02:30:11.318Z,8.20
2023-05-05T02:33:18.209Z,8.14
2023-05-05T02:36:22.530Z,8.13
2023-05-05T02:39:35.933Z,8.12
2023-05-05T02:42:46.463Z,8.12
2023-05-05T02:45:48.549Z,8.06
2023-05-05T02:48:50.648Z,8.04
2023-05-05T02:51:52.785Z,8.05
2023-05-05T02:54:54.806Z,8.05
2023-05-05T02:58:14.318Z,8.01
2023-05-05T03:01:17.093Z,8.04
2023-05-05T03:04:41.852Z,8.02
2023-05-05T03:08:00.354Z,7.97
2023-05-05T03:11:08.076Z,7.95
2023-05-05T03:14:17.315Z,7.93
2023-05-05T03:17:21.709Z,7.90
2023-05-05T03:20:25.973Z,7.92
2023-05-05T03:23:28.075Z,7.88
2023-05-05T03:26:29.966Z,7.83
2023-05-05T03:29:31.906Z,7.85
2023-05-05T03:32:33.976Z,7.84
2023-05-05T03:35:36.118Z,7.77
2023-05-05T03:38:38.191Z,7.77
2023-05-05T03:41:40.191Z,7.77
2023-05-05T03:44:42.156Z,7.77
2023-05-05T03:47:44.161Z,7.77
2023-05-05T03:50:46.367Z,7.78
2023-05-05T03:53:48.305Z,7.80
2023-05-05T03:56:50.348Z,7.77
2023-05-05T03:59:52.683Z,7.83
2023-05-05T04:02:54.720Z,7.86
2023-05-05T04:05:56.724Z,7.96
2023-05-05T04:08:58.701Z,8.00
2023-05-05T04:12:01.630Z,8.03
2023-05-05T04:15:04.131Z,8.12
2023-05-05T04:18:06.206Z,8.11
2023-05-05T04:21:08.211Z,8.26
2023-05-05T04:24:10.456Z,8.33
2023-05-05T04:27:12.359Z,8.32
2023-05-05T04:30:15.056Z,8.31
2023-05-05T04:33:17.037Z,8.39
2023-05-05T04:36:19.294Z,8.56
2023-05-05T04:39:21.691Z,8.73
2023-05-05T04:42:23.938Z,8.93
2023-05-05T04:45:26.505Z,9.05
2023-05-05T04:48:28.562Z,9.17
2023-05-05T04:51:32.243Z,9.34
2023-05-05T04:54:37.541Z,9.40
2023-05-05T04:57:39.593Z,9.41
2023-05-05T05:00:41.523Z,9.41
2023-05-05T05:03:43.577Z,9.47
2023-05-05T05:06:46.186Z,9.59
2023-05-05T05:09:48.147Z,9.64
2023-05-05T05:12:50.480Z,9.72
2023-05-05T05:15:52.458Z,9.80
2023-05-05T05:18:54.854Z,9.93
2023-05-05T05:21:56.792Z,10.07
2023-05-05T05:24:59.236Z,10.25
2023-05-05T05:28:08.936Z,10.39
2023-05-05T05:31:12.356Z,10.59
2023-05-05T05:34:14.963Z,10.78
2023-05-05T05:37:17.095Z,10.89
2023-05-05T05:40:19.448Z,11.08
2023-05-05T05:43:21.417Z,11.17
2023-05-05T05:46:23.436Z,11.35
2023-05-05T05:49:25.867Z,11.78
2023-05-05T05:52:28.319Z,12.39
2023-05-05T05:55:30.428Z,12.98
2023-05-05T05:58:32.364Z,13.56
2023-05-05T06:01:35.515Z,14.11
2023-05-05T06:04:37.747Z,14.50
2023-05-05T06:07:39.825Z,15.01
2023-05-05T06:10:42.155Z,15.29
2023-05-05T06:13:44.226Z,15.55
2023-05-05T06:16:46.113Z,15.96
2023-05-05T06:19:48.179Z,16.28
2023-05-05T06:22:50.114Z,16.78
2023-05-05T06:25:53.410Z,17.49
2023-05-05T06:28:56.002Z,17.67
2023-05-05T06:31:58.146Z,18.05
2023-05-05T06:35:00.169Z,18.06
2023-05-05T06:38:02.149Z,18.47
2023-05-05T06:41:04.299Z,18.70
2023-05-05T06:44:06.860Z,18.92
2023-05-05T06:47:08.833Z,19.01
2023-05-05T06:50:11.468Z,19.19
2023-05-05T06:53:13.533Z,19.18
2023-05-05T06:56:15.655Z,18.98
2023-05-05T06:59:17.587Z,19.18
2023-05-05T07:02:19.641Z,19.14
2023-05-05T07:05:22.003Z,19.18
2023-05-05T07:08:25.505Z,19.71
2023-05-05T07:11:27.435Z,20.43
2023-05-05T07:14:29.383Z,20.12
2023-05-05T07:17:31.313Z,20.57
2023-05-05T07:20:33.391Z,20.51
2023-05-05T07:23:37.484Z,21.20
2023-05-05T07:26:40.161Z,20.99
2023-05-05T07:29:42.134Z,21.20
2023-05-05T07:32:44.321Z,20.88
2023-05-05T07:35:46.716Z,21.12
2023-05-05T07:38:48.895Z,21.46
2023-05-05T07:41:51.119Z,22.20
2023-05-05T07:44:53.146Z,22.48
2023-05-05T07:47:55.875Z,23.28
2023-05-05T07:50:58.267Z,22.72
2023-05-05T07:54:00.445Z,22.70
2023-05-05T07:57:02.417Z,23.14
2023-05-05T08:00:05.295Z,23.37
2023-05-05T08:03:11.320Z,22.98
2023-05-05T08:06:16.558Z,23.59
2023-05-05T08:09:18.671Z,24.00
2023-05-05T08:12:21.103Z,24.32
2023-05-05T08:15:23.164Z,23.79
2023-05-05T08:21:44.856Z,24.18
2023-05-05T08:24:46.895Z,24.25
2023-05-05T08:27:48.814Z,23.87
2023-05-05T08:30:50.985Z,23.98
2023-05-05T08:33:52.921Z,23.46
2023-05-05T08:36:54.799Z,24.06
2023-05-05T08:39:57.958Z,24.80
2023-05-05T08:43:01.536Z,24.07
2023-05-05T08:46:04.570Z,25.00
2023-05-05T08:49:09.592Z,25.22
2023-05-05T08:52:14.398Z,26.07
2023-05-05T08:55:26.937Z,25.04
2023-05-05T08:58:31.463Z,25.39
2023-05-05T09:01:35.097Z,25.32
2023-05-05T09:04:37.177Z,25.03
2023-05-05T09:07:43.811Z,25.88
2023-05-05T09:10:46.157Z,25.44
2023-05-05T09:17:22.282Z,25.68
2023-05-05T09:20:24.737Z,24.79
2023-05-05T09:23:26.721Z,24.80
2023-05-05T09:26:33.225Z,25.67
2023-05-05T09:29:35.724Z,25.56
2023-05-05T09:32:49.106Z,25.85
2023-05-05T09:35:53.997Z,26.86
2023-05-05T09:39:06.462Z,26.15
2023-05-05T09:42:19.083Z,25.00
2023-05-05T09:45:20.922Z,25.31
2023-05-05T09:48:30.951Z,26.20
2023-05-05T09:51:33.452Z,25.46
2023-05-05T09:54:35.537Z,25.34
2023-05-05T09:57:37.475Z,25.70
2023-05-05T10:00:39.737Z,25.09
2023-05-05T10:03:52.958Z,25.77
2023-05-05T10:06:57.139Z,26.79
2023-05-05T10:09:59.082Z,26.77
2023-05-05T10:13:01.915Z,27.24
2023-05-05T10:16:04.767Z,26.80
2023-05-05T10:19:07.099Z,26.18
2023-05-05T10:22:10.863Z,26.64
2023-05-05T10:25:16.067Z,27.98
2023-05-05T10:28:42.225Z,26.72
2023-05-05T10:31:54.330Z,26.84
2023-05-05T10:35:09.174Z,27.67
2023-05-05T10:38:13.244Z,28.12
2023-05-05T10:41:16.289Z,27.93
2023-05-05T10:44:18.416Z,28.37
2023-05-05T10:47:22.422Z,28.96
2023-05-05T10:50:24.337Z,27.28
2023-05-05T10:53:31.665Z,28.54
2023-05-05T10:56:36.153Z,28.93
2023-05-05T10:59:40.130Z,28.72
2023-05-05T11:02:42.310Z,29.36
2023-05-05T11:06:08.967Z,27.42
2023-05-05T11:09:29.773Z,26.09
2023-05-05T11:12:33.180Z,27.08
2023-05-05T11:15:37.957Z,28.73
2023-05-05T11:18:44.537Z,28.18
2023-05-05T11:22:02.544Z,28.24
2023-05-05T11:25:36.593Z,28.81
2023-05-05T11:29:08.529Z,27.25
2023-05-05T11:32:12.572Z,28.90
2023-05-05T11:35:15.619Z,27.91
2023-05-05T11:38:20.969Z,26.92
2023-05-05T11:41:51.775Z,27.43
2023-05-05T11:44:54.820Z,28.18
2023-05-05T11:48:27.160Z,29.83
2023-05-05T11:51:48.691Z,28.90
2023-05-05T11:54:51.462Z,28.34
2023-05-05T11:57:53.505Z,27.95
2023-05-05T12:00:55.608Z,28.13
2023-05-05T12:03:58.265Z,28.26
2023-05-05T12:07:00.737Z,27.70
2023-05-05T12:10:02.942Z,28.35
2023-05-05T12:13:20.114Z,28.66
2023-05-05T12:16:22.507Z,29.05
2023-05-05T12:19:30.118Z,30.05
2023-05-05T12:22:32.388Z,29.93
2023-05-05T12:25:40.678Z,30.18
2023-05-05T12:28:46.651Z,28.60
2023-05-05T12:31:49.125Z,27.57
2023-05-05T12:34:57.537Z,25.99
2023-05-05T12:38:00.008Z,24.84
2023-05-05T12:41:03.007Z,25.64
2023-05-05T12:44:05.360Z,25.25
2023-05-05T12:47:07.773Z,24.53
2023-05-05T12:50:10.509Z,23.92
2023-05-05T12:53:21.158Z,24.64
2023-05-05T12:56:33.638Z,24.82
2023-05-05T12:59:35.739Z,24.87
2023-05-05T13:02:38.006Z,24.27
2023-05-05T13:05:41.246Z,24.33
2023-05-05T13:08:43.866Z,24.53
2023-05-05T13:11:46.036Z,24.42
2023-05-05T13:14:48.489Z,24.45
2023-05-05T13:17:50.873Z,23.52
2023-05-05T13:20:52.912Z,23.72
2023-05-05T13:24:01.599Z,24.02
2023-05-05T13:27:14.204Z,24.41
2023-05-05T13:30:16.244Z,25.75
2023-05-05T13:33:18.271Z,26.09
2023-05-05T13:36:20.326Z,27.06
2023-05-05T13:39:22.818Z,26.63
2023-05-05T13:42:25.035Z,27.96
2023-05-05T13:45:26.989Z,28.42
2023-05-05T13:48:29.171Z,28.66
2023-05-05T13:51:31.241Z,28.40
2023-05-05T13:54:33.192Z,29.15
2023-05-05T13:57:35.194Z,28.91
2023-05-05T14:00:37.985Z,28.51
2023-05-05T14:03:40.145Z,28.05
2023-05-05T14:06:42.082Z,28.76
2023-05-05T14:09:44.134Z,27.56
2023-05-05T14:12:46.247Z,28.25
2023-05-05T14:15:50.368Z,27.23
2023-05-05T14:18:52.571Z,28.33
2023-05-05T14:21:54.561Z,28.78
2023-05-05T14:24:57.006Z,28.96
2023-05-05T14:27:58.970Z,28.75
2023-05-05T14:31:01.008Z,28.86
2023-05-05T14:34:03.225Z,26.64
2023-05-05T14:37:05.203Z,26.25
2023-05-05T14:40:07.838Z,25.62
2023-05-05T14:43:09.891Z,26.81
2023-05-05T14:46:12.000Z,27.09
2023-05-05T14:49:14.107Z,26.70
2023-05-05T14:52:16.076Z,26.32
2023-05-05T14:55:18.226Z,25.94
2023-05-05T14:58:22.480Z,26.00
2023-05-05T15:01:27.655Z,25.88
2023-05-05T15:04:29.752Z,26.56
2023-05-05T15:07:31.706Z,26.45
2023-05-05T15:10:33.780Z,26.33
2023-05-05T15:13:38.596Z,25.81
2023-05-05T15:16:41.062Z,25.79
2023-05-05T15:19:43.017Z,26.26
2023-05-05T15:22:45.058Z,26.06
2023-05-05T15:25:47.162Z,26.13
2023-05-05T15:28:50.420Z,26.11
2023-05-05T15:31:52.829Z,25.87
2023-05-05T15:34:56.378Z,25.64
2023-05-05T15:37:58.424Z,25.59
2023-05-05T15:41:00.560Z,25.39
2023-05-05T15:44:04.507Z,25.05
2023-05-05T15:47:11.001Z,25.10
2023-05-05T15:50:13.050Z,24.94
2023-05-05T15:53:15.084Z,24.77
2023-05-05T15:56:17.284Z,24.79
2023-05-05T15:59:19.423Z,24.50
2023-05-05T16:02:22.154Z,24.65
2023-05-05T16:05:24.144Z,25.10
2023-05-05T16:08:26.144Z,24.78
2023-05-05T16:11:28.568Z,24.26
2023-05-05T16:14:32.237Z,24.06
2023-05-05T16:17:34.299Z,23.92
2023-05-05T16:20:36.305Z,23.74
2023-05-05T16:23:38.404Z,23.44
2023-05-05T16:26:40.330Z,23.13
2023-05-05T16:29:42.209Z,22.96
2023-05-05T16:32:44.487Z,22.63
2023-05-05T16:35:46.661Z,22.34
2023-05-05T16:38:49.800Z,22.38
2023-05-05T16:41:52.585Z,22.44
2023-05-05T16:44:54.705Z,22.23
2023-05-05T16:47:56.733Z,22.34
2023-05-05T16:50:58.827Z,22.40
2023-05-05T16:54:00.942Z,22.26
2023-05-05T16:57:03.858Z,22.23
2023-05-05T17:00:07.333Z,22.23
2023-05-05T17:03:09.346Z,22.12
2023-05-05T17:06:13.079Z,22.06
2023-05-05T17:09:15.542Z,21.89
2023-05-05T17:12:17.712Z,21.90
2023-05-05T17:15:19.765Z,21.78
2023-05-05T17:18:22.830Z,21.82
2023-05-05T17:21:24.814Z,21.71
2023-05-05T17:24:26.818Z,21.69
2023-05-05T17:27:28.859Z,21.55
2023-05-05T17:30:30.949Z,21.43
2023-05-05T17:33:32.870Z,21.37
2023-05-05T17:36:35.545Z,21.29
2023-05-05T17:39:37.769Z,21.16
2023-05-05T17:42:40.635Z,21.12
2023-05-05T17:45:42.627Z,21.05
2023-05-05T17:48:45.015Z,20.95
2023-05-05T17:51:47.141Z,20.83
2023-05-05T17:54:49.863Z,20.73
2023-05-05T17:57:51.911Z,20.53
2023-05-05T18:00:53.861Z,20.37
2023-05-05T18:03:56.575Z,20.23
2023-05-05T18:06:58.550Z,20.12
2023-05-05T18:10:00.763Z,20.05
2023-05-05T18:13:02.814Z,19.94
2023-05-05T18:16:05.659Z,19.85
2023-05-05T18:19:08.215Z,19.81
2023-05-05T18:22:10.710Z,19.68
2023-05-05T18:25:12.944Z,19.56
2023-05-05T18:28:15.305Z,19.43
2023-05-05T18:31:17.479Z,19.39
2023-05-05T18:34:20.627Z,19.34
2023-05-05T18:37:22.695Z,19.25
2023-05-05T18:40:24.721Z,19.19
2023-05-05T18:43:26.856Z,19.10
2023-05-05T18:46:29.157Z,18.98
2023-05-05T18:49:31.742Z,18.94
2023-05-05T18:52:34.498Z,18.74
2023-05-05T18:55:36.877Z,18.62
2023-05-05T18:58:39.302Z,18.51
2023-05-05T19:01:43.017Z,18.40
2023-05-05T19:04:46.614Z,18.23
2023-05-05T19:07:49.070Z,18.08
2023-05-05T19:10:51.439Z,17.92
2023-05-05T19:13:53.658Z,17.79
2023-05-05T19:17:02.214Z,17.75
2023-05-05T19:20:04.704Z,17.64
2023-05-05T19:23:07.179Z,17.56
2023-05-05T19:26:10.405Z,17.54
2023-05-05T19:29:12.798Z,17.49
2023-05-05T19:32:15.082Z,17.38
2023-05-05T19:35:17.642Z,17.22
2023-05-05T19:38:19.536Z,17.07
2023-05-05T19:41:21.579Z,16.98
2023-05-05T19:44:23.895Z,16.86
2023-05-05T19:47:26.187Z,16.86
2023-05-05T19:50:30.379Z,16.75
2023-05-05T19:53:32.438Z,16.75
2023-05-05T19:56:34.438Z,16.70
2023-05-05T19:59:36.466Z,16.63
2023-05-05T20:02:38.800Z,16.56
2023-05-05T20:05:41.161Z,16.46
2023-05-05T20:08:43.145Z,16.37
2023-05-05T20:11:45.200Z,16.20
2023-05-05T20:14:47.518Z,16.08
2023-05-05T20:17:49.887Z,16.10
2023-05-05T20:20:51.898Z,16.10
2023-05-05T20:23:56.634Z,16.00
2023-05-05T20:26:58.653Z,15.85
2023-05-05T20:30:00.548Z,15.78
2023-05-05T20:33:02.655Z,15.71
2023-05-05T20:36:05.031Z,15.60
2023-05-05T20:39:08.117Z,15.48
2023-05-05T20:42:11.204Z,15.49
2023-05-05T20:45:13.457Z,15.33
2023-05-05T20:48:15.570Z,15.21
2023-05-05T20:51:17.500Z,15.21
2023-05-05T20:54:19.499Z,15.15
2023-05-05T20:57:21.743Z,15.11
2023-05-05T21:00:24.267Z,14.99
2023-05-05T21:03:26.327Z,14.90
2023-05-05T21:06:28.353Z,14.92
2023-05-05T21:09:31.652Z,14.87
2023-05-05T21:12:34.633Z,14.79
2023-05-05T21:15:37.612Z,14.84
2023-05-05T21:18:39.850Z,14.83
2023-05-05T21:21:41.824Z,14.78
2023-05-05T21:24:44.071Z,14.72
2023-05-05T21:27:48.032Z,14.72
2023-05-05T21:31:10.261Z,14.69
2023-05-05T21:34:13.585Z,14.57
2023-05-05T21:37:15.791Z,14.53
2023-05-05T21:40:23.008Z,14.47
2023-05-05T21:43:30.644Z,14.41
2023-05-05T21:46:32.805Z,14.31
2023-05-05T21:49:34.845Z,14.28
2023-05-05T21:52:36.928Z,14.23
2023-05-05T21:55:38.986Z,14.06
2023-05-05T21:58:41.614Z,14.04
2023-05-05T22:01:43.827Z,14.06
2023-05-05T22:04:48.801Z,14.02
2023-05-05T22:07:50.840Z,13.98
2023-05-05T22:10:52.890Z,13.95
2023-05-05T22:13:56.098Z,13.88
2023-05-05T22:16:58.130Z,13.81
2023-05-05T22:20:00.081Z,13.82
2023-05-05T22:23:02.052Z,13.69
2023-05-05T22:26:04.973Z,13.63
2023-05-05T22:29:07.063Z,13.63
2023-05-05T22:32:09.135Z,13.62
2023-05-05T22:35:11.290Z,13.60
2023-05-05T22:38:13.589Z,13.54
2023-05-05T22:41:16.136Z,13.51
2023-05-05T22:44:18.103Z,13.48
2023-05-05T22:47:20.133Z,13.43
2023-05-05T22:50:22.318Z,13.37
2023-05-05T22:53:24.535Z,13.39
2023-05-05T22:56:26.706Z,13.35
2023-05-05T22:59:28.655Z,13.32
2023-05-05T23:02:30.692Z,13.28
2023-05-05T23:05:34.465Z,13.28
2023-05-05T23:08:36.475Z,13.20
2023-05-05T23:11:38.615Z,13.17
2023-05-05T23:14:40.642Z,13.03
2023-05-05T23:17:42.666Z,13.07
2023-05-05T23:20:44.669Z,13.08
2023-05-05T23:23:48.533Z,13.03
2023-05-05T23:26:51.989Z,13.01
2023-05-05T23:29:53.905Z,13.02
2023-05-05T23:32:57.561Z,12.97
2023-05-05T23:35:59.615Z,12.93
2023-05-05T23:39:01.775Z,12.86
2023-05-05T23:42:03.785Z,12.88
2023-05-05T23:45:06.513Z,12.83
2023-05-05T23:48:08.800Z,12.80
2023-05-05T23:51:10.873Z,12.77
2023-05-05T23:54:12.783Z,12.71
2023-05-05T23:57:14.956Z,12.64
